RJBM(METAR)
01/24 01:00
METAR RJBM 231600Z 31007KT 9999 -SHSN FEW015 BKN025 01/M05 Q1023 RMK
2CU015 7CU025 A3022=
戻る
トップページへ戻る
IMOC Co,.Ltd.